VOML/IXE METAR and TAF weather

Enter ICAO airport designator
Station Type Date Time Source
VOML METAR 2022/12/08 12:30 UTC NOAA

VOML 081230Z 32006KT 6000 FEW080 29/19 Q1007 TEMPO 5000 HZ


Station Type Date Time Source
VOML Decoded METAR 2022/12/08 12:30 UTC NOAA

Mangalore / Bajpe, India (VOML) 12-55N 074-53E 102M
Dec 08, 2022 - 07:30 AM EST / 2022.12.08 1230 UTC
Wind: from the NW (320 degrees) at 7 MPH (6 KT):0
Visibility: 3 mile(s):0
Sky conditions: mostly clear
Temperature: 84 F (29 C)
Dew Point: 66 F (19 C)
Relative Humidity: 54%
Pressure (altimeter): 29.74 in. Hg (1007 hPa)
ob: VOML 081230Z 32006KT 6000 FEW080 29/19 Q1007 TEMPO 5000 HZ
cycle: 12

Station Type Date Time Source
VOML TAF 2022/12/08 12:00 UTC NOAA

TAF VOML 081100Z 0812/0918 32010KT 6000 FEW015 SCT080
BECMG 0816/0817 09005KT
BECMG 0822/0823 3000 BR SCT005 SCT012
TEMPO 0900/0903 1500 BR SCT002 SCT012
BECMG 0905/0906 32010KT 6000 FEW015 SCT080
BECMG 0916/0917 09005KT

Example: see airport list